sensor_id;sensor_type;location;lat;lon;timestamp;P1;durP1;ratioP1;P2;durP2;ratioP2
47737;SDS011;33502;47.182;27.506;2023-07-08T00:00:49;521.35;;;480.17;;
47737;SDS011;33502;47.182;27.506;2023-07-08T00:03:15;449.40;;;415.23;;
47737;SDS011;33502;47.182;27.506;2023-07-08T00:05:42;547.17;;;493.40;;
47737;SDS011;33502;47.182;27.506;2023-07-08T00:08:16;539.08;;;482.42;;
47737;SDS011;33502;47.182;27.506;2023-07-08T00:10:43;554.78;;;498.52;;
47737;SDS011;33502;47.182;27.506;2023-07-08T00:13:09;497.05;;;447.20;;
47737;SDS011;33502;47.182;27.506;2023-07-08T00:15:36;616.00;;;560.97;;
47737;SDS011;33502;47.182;27.506;2023-07-08T00:18:09;606.50;;;552.17;;
47737;SDS011;33502;47.182;27.506;2023-07-08T00:20:47;596.78;;;538.55;;
47737;SDS011;33502;47.182;27.506;2023-07-08T00:23:14;578.10;;;520.40;;
47737;SDS011;33502;47.182;27.506;2023-07-08T00:25:40;621.95;;;566.92;;
47737;SDS011;33502;47.182;27.506;2023-07-08T00:28:14;601.13;;;555.22;;
47737;SDS011;33502;47.182;27.506;2023-07-08T00:30:42;628.05;;;584.67;;
47737;SDS011;33502;47.182;27.506;2023-07-08T00:33:09;588.17;;;531.10;;
47737;SDS011;33502;47.182;27.506;2023-07-08T00:35:42;584.95;;;538.88;;
47737;SDS011;33502;47.182;27.506;2023-07-08T00:38:23;604.20;;;548.88;;
47737;SDS011;33502;47.182;27.506;2023-07-08T00:46:11;574.92;;;518.45;;
47737;SDS011;33502;47.182;27.506;2023-07-08T00:48:43;596.85;;;541.30;;
47737;SDS011;33502;47.182;27.506;2023-07-08T00:51:11;540.75;;;484.45;;
47737;SDS011;33502;47.182;27.506;2023-07-08T00:53:38;609.47;;;552.28;;
47737;SDS011;33502;47.182;27.506;2023-07-08T00:58:40;579.67;;;522.33;;
47737;SDS011;33502;47.182;27.506;2023-07-08T01:01:09;571.67;;;514.35;;
47737;SDS011;33502;47.182;27.506;2023-07-08T01:03:40;565.05;;;508.15;;
47737;SDS011;33502;47.182;27.506;2023-07-08T01:06:18;570.40;;;512.97;;
47737;SDS011;33502;47.182;27.506;2023-07-08T01:08:47;561.00;;;503.73;;
47737;SDS011;33502;47.182;27.506;2023-07-08T01:11:17;584.80;;;534.08;;
47737;SDS011;33502;47.182;27.506;2023-07-08T01:13:46;542.47;;;485.65;;
47737;SDS011;33502;47.182;27.506;2023-07-08T01:16:16;527.65;;;471.45;;
47737;SDS011;33502;47.182;27.506;2023-07-08T01:18:43;517.15;;;460.73;;
47737;SDS011;33502;47.182;27.506;2023-07-08T01:24:07;492.88;;;435.80;;
47737;SDS011;33502;47.182;27.506;2023-07-08T01:26:39;492.90;;;435.40;;
47737;SDS011;33502;47.182;27.506;2023-07-08T01:29:09;514.20;;;458.48;;
47737;SDS011;33502;47.182;27.506;2023-07-08T01:31:36;528.70;;;472.42;;
47737;SDS011;33502;47.182;27.506;2023-07-08T01:34:03;553.05;;;496.58;;
47737;SDS011;33502;47.182;27.506;2023-07-08T01:36:29;536.47;;;480.58;;
47737;SDS011;33502;47.182;27.506;2023-07-08T01:39:12;572.00;;;514.80;;
47737;SDS011;33502;47.182;27.506;2023-07-08T01:41:43;521.05;;;465.25;;
47737;SDS011;33502;47.182;27.506;2023-07-08T01:44:28;522.80;;;467.00;;
47737;SDS011;33502;47.182;27.506;2023-07-08T01:46:58;498.17;;;443.05;;
47737;SDS011;33502;47.182;27.506;2023-07-08T01:49:30;529.08;;;473.15;;
47737;SDS011;33502;47.182;27.506;2023-07-08T01:51:59;549.17;;;493.00;;
47737;SDS011;33502;47.182;27.506;2023-07-08T01:54:25;541.42;;;485.35;;
47737;SDS011;33502;47.182;27.506;2023-07-08T01:56:54;546.92;;;490.38;;
47737;SDS011;33502;47.182;27.506;2023-07-08T01:59:21;568.80;;;511.10;;
47737;SDS011;33502;47.182;27.506;2023-07-08T02:01:47;535.60;;;479.42;;
47737;SDS011;33502;47.182;27.506;2023-07-08T02:04:15;518.05;;;462.45;;
47737;SDS011;33502;47.182;27.506;2023-07-08T02:06:41;534.33;;;478.10;;
47737;SDS011;33502;47.182;27.506;2023-07-08T02:09:09;550.28;;;493.58;;
47737;SDS011;33502;47.182;27.506;2023-07-08T02:11:34;553.92;;;497.13;;
47737;SDS011;33502;47.182;27.506;2023-07-08T02:14:00;560.05;;;503.30;;
47737;SDS011;33502;47.182;27.506;2023-07-08T02:16:26;576.83;;;519.22;;
47737;SDS011;33502;47.182;27.506;2023-07-08T02:18:52;579.40;;;521.65;;
47737;SDS011;33502;47.182;27.506;2023-07-08T02:21:17;478.15;;;401.67;;
47737;SDS011;33502;47.182;27.506;2023-07-08T02:23:49;464.98;;;366.20;;
47737;SDS011;33502;47.182;27.506;2023-07-08T02:26:15;340.43;;;267.30;;
47737;SDS011;33502;47.182;27.506;2023-07-08T02:28:40;475.55;;;382.90;;
47737;SDS011;33502;47.182;27.506;2023-07-08T02:31:06;456.95;;;333.67;;
47737;SDS011;33502;47.182;27.506;2023-07-08T02:33:32;459.48;;;334.63;;
47737;SDS011;33502;47.182;27.506;2023-07-08T02:35:58;462.83;;;363.08;;
47737;SDS011;33502;47.182;27.506;2023-07-08T02:38:26;337.17;;;264.70;;
47737;SDS011;33502;47.182;27.506;2023-07-08T02:40:51;455.92;;;344.25;;
47737;SDS011;33502;47.182;27.506;2023-07-08T02:43:17;458.60;;;346.35;;
47737;SDS011;33502;47.182;27.506;2023-07-08T02:45:43;457.75;;;343.80;;
47737;SDS011;33502;47.182;27.506;2023-07-08T02:48:09;336.38;;;246.57;;
47737;SDS011;33502;47.182;27.506;2023-07-08T02:50:35;448.23;;;308.85;;
47737;SDS011;33502;47.182;27.506;2023-07-08T02:53:00;455.38;;;336.90;;
47737;SDS011;33502;47.182;27.506;2023-07-08T02:55:26;459.27;;;340.98;;
47737;SDS011;33502;47.182;27.506;2023-07-08T02:57:52;232.77;;;121.47;;
47737;SDS011;33502;47.182;27.506;2023-07-08T03:00:18;450.55;;;315.70;;
47737;SDS011;33502;47.182;27.506;2023-07-08T03:02:45;440.05;;;290.88;;
47737;SDS011;33502;47.182;27.506;2023-07-08T03:05:10;446.00;;;291.35;;
47737;SDS011;33502;47.182;27.506;2023-07-08T03:07:36;416.15;;;193.35;;
47737;SDS011;33502;47.182;27.506;2023-07-08T03:10:02;422.50;;;217.35;;
47737;SDS011;33502;47.182;27.506;2023-07-08T03:12:29;412.02;;;188.13;;
47737;SDS011;33502;47.182;27.506;2023-07-08T03:14:54;405.65;;;185.05;;
47737;SDS011;33502;47.182;27.506;2023-07-08T03:17:20;20.73;;;18.80;;
47737;SDS011;33502;47.182;27.506;2023-07-08T03:19:46;12.30;;;10.10;;
47737;SDS011;33502;47.182;27.506;2023-07-08T03:22:12;15.80;;;12.65;;
47737;SDS011;33502;47.182;27.506;2023-07-08T03:24:39;14.13;;;11.23;;
47737;SDS011;33502;47.182;27.506;2023-07-08T03:27:13;16.40;;;14.70;;
47737;SDS011;33502;47.182;27.506;2023-07-08T03:29:40;17.20;;;13.20;;
47737;SDS011;33502;47.182;27.506;2023-07-08T03:32:08;15.43;;;13.30;;
47737;SDS011;33502;47.182;27.506;2023-07-08T03:34:36;16.30;;;14.15;;
47737;SDS011;33502;47.182;27.506;2023-07-08T03:37:02;10.82;;;9.15;;
47737;SDS011;33502;47.182;27.506;2023-07-08T03:39:28;10.27;;;8.00;;
47737;SDS011;33502;47.182;27.506;2023-07-08T03:41:54;18.02;;;13.50;;
47737;SDS011;33502;47.182;27.506;2023-07-08T03:44:19;14.73;;;8.88;;
47737;SDS011;33502;47.182;27.506;2023-07-08T03:46:46;15.50;;;12.25;;
47737;SDS011;33502;47.182;27.506;2023-07-08T03:49:16;21.20;;;14.38;;
47737;SDS011;33502;47.182;27.506;2023-07-08T03:51:48;15.00;;;13.45;;
47737;SDS011;33502;47.182;27.506;2023-07-08T03:54:17;17.95;;;15.43;;
47737;SDS011;33502;47.182;27.506;2023-07-08T03:56:44;18.98;;;13.10;;
47737;SDS011;33502;47.182;27.506;2023-07-08T03:59:11;19.65;;;11.02;;
47737;SDS011;33502;47.182;27.506;2023-07-08T04:01:37;13.32;;;8.05;;
47737;SDS011;33502;47.182;27.506;2023-07-08T04:04:09;16.27;;;8.77;;
47737;SDS011;33502;47.182;27.506;2023-07-08T04:06:38;11.70;;;6.95;;
47737;SDS011;33502;47.182;27.506;2023-07-08T04:09:05;20.27;;;17.88;;
47737;SDS011;33502;47.182;27.506;2023-07-08T04:11:32;26.30;;;24.40;;
47737;SDS011;33502;47.182;27.506;2023-07-08T04:13:58;39.63;;;36.63;;
47737;SDS011;33502;47.182;27.506;2023-07-08T04:16:28;18.92;;;12.88;;
47737;SDS011;33502;47.182;27.506;2023-07-08T04:18:55;11.52;;;7.25;;
47737;SDS011;33502;47.182;27.506;2023-07-08T04:21:22;19.20;;;12.05;;
47737;SDS011;33502;47.182;27.506;2023-07-08T04:23:50;39.63;;;36.67;;
47737;SDS011;33502;47.182;27.506;2023-07-08T04:26:16;31.00;;;28.70;;
47737;SDS011;33502;47.182;27.506;2023-07-08T04:28:44;17.40;;;15.50;;
47737;SDS011;33502;47.182;27.506;2023-07-08T04:31:10;17.15;;;15.50;;
47737;SDS011;33502;47.182;27.506;2023-07-08T04:33:36;29.75;;;27.30;;
47737;SDS011;33502;47.182;27.506;2023-07-08T04:36:02;15.15;;;13.68;;
47737;SDS011;33502;47.182;27.506;2023-07-08T04:38:28;24.35;;;18.08;;
47737;SDS011;33502;47.182;27.506;2023-07-08T04:40:54;12.05;;;6.95;;
47737;SDS011;33502;47.182;27.506;2023-07-08T04:43:22;12.20;;;5.72;;
47737;SDS011;33502;47.182;27.506;2023-07-08T04:45:54;12.23;;;6.40;;
47737;SDS011;33502;47.182;27.506;2023-07-08T04:48:22;15.60;;;8.57;;
47737;SDS011;33502;47.182;27.506;2023-07-08T04:50:51;11.98;;;6.10;;
47737;SDS011;33502;47.182;27.506;2023-07-08T04:53:18;9.40;;;5.18;;
47737;SDS011;33502;47.182;27.506;2023-07-08T04:55:51;18.13;;;9.90;;
47737;SDS011;33502;47.182;27.506;2023-07-08T04:58:19;8.05;;;4.53;;
47737;SDS011;33502;47.182;27.506;2023-07-08T05:00:45;7.18;;;4.43;;
47737;SDS011;33502;47.182;27.506;2023-07-08T05:03:11;7.47;;;4.53;;
47737;SDS011;33502;47.182;27.506;2023-07-08T05:05:37;10.10;;;6.20;;
47737;SDS011;33502;47.182;27.506;2023-07-08T05:08:02;5.88;;;3.38;;
47737;SDS011;33502;47.182;27.506;2023-07-08T05:10:29;4.57;;;2.60;;
47737;SDS011;33502;47.182;27.506;2023-07-08T05:12:55;7.82;;;3.67;;
47737;SDS011;33502;47.182;27.506;2023-07-08T05:15:20;14.38;;;7.35;;
47737;SDS011;33502;47.182;27.506;2023-07-08T05:17:47;11.60;;;4.63;;
47737;SDS011;33502;47.182;27.506;2023-07-08T05:20:13;14.95;;;5.25;;
47737;SDS011;33502;47.182;27.506;2023-07-08T05:22:40;8.80;;;4.15;;
47737;SDS011;33502;47.182;27.506;2023-07-08T05:25:08;12.80;;;5.50;;
47737;SDS011;33502;47.182;27.506;2023-07-08T05:27:34;7.65;;;4.15;;
47737;SDS011;33502;47.182;27.506;2023-07-08T05:30:04;10.45;;;3.85;;
47737;SDS011;33502;47.182;27.506;2023-07-08T05:32:32;15.55;;;5.55;;
47737;SDS011;33502;47.182;27.506;2023-07-08T05:34:58;28.77;;;10.30;;
47737;SDS011;33502;47.182;27.506;2023-07-08T05:37:24;6.18;;;2.70;;
47737;SDS011;33502;47.182;27.506;2023-07-08T05:39:53;10.82;;;3.83;;
47737;SDS011;33502;47.182;27.506;2023-07-08T05:42:20;15.15;;;4.95;;
47737;SDS011;33502;47.182;27.506;2023-07-08T05:44:47;18.33;;;6.60;;
47737;SDS011;33502;47.182;27.506;2023-07-08T06:40:39;267.10;;;93.78;;
47737;SDS011;33502;47.182;27.506;2023-07-08T06:43:05;17.38;;;6.18;;
47737;SDS011;33502;47.182;27.506;2023-07-08T06:45:49;6.32;;;3.97;;
47737;SDS011;33502;47.182;27.506;2023-07-08T06:48:14;8.23;;;4.00;;
47737;SDS011;33502;47.182;27.506;2023-07-08T06:50:46;8.63;;;4.05;;
47737;SDS011;33502;47.182;27.506;2023-07-08T06:53:13;12.38;;;7.50;;
47737;SDS011;33502;47.182;27.506;2023-07-08T06:55:39;11.00;;;5.53;;
47737;SDS011;33502;47.182;27.506;2023-07-08T07:49:06;7.82;;;4.57;;
47737;SDS011;33502;47.182;27.506;2023-07-08T07:51:31;6.18;;;3.17;;
47737;SDS011;33502;47.182;27.506;2023-07-08T07:53:57;23.17;;;10.38;;
47737;SDS011;33502;47.182;27.506;2023-07-08T07:56:23;11.65;;;4.60;;
47737;SDS011;33502;47.182;27.506;2023-07-08T07:58:48;14.13;;;4.80;;
47737;SDS011;33502;47.182;27.506;2023-07-08T08:03:40;17.65;;;8.45;;
47737;SDS011;33502;47.182;27.506;2023-07-08T08:06:06;11.00;;;4.05;;
47737;SDS011;33502;47.182;27.506;2023-07-08T08:08:32;8.13;;;3.60;;
47737;SDS011;33502;47.182;27.506;2023-07-08T08:10:58;12.07;;;4.95;;
47737;SDS011;33502;47.182;27.506;2023-07-08T08:13:24;7.43;;;3.65;;
47737;SDS011;33502;47.182;27.506;2023-07-08T08:15:55;12.75;;;5.43;;
47737;SDS011;33502;47.182;27.506;2023-07-08T08:20:49;11.55;;;4.40;;
47737;SDS011;33502;47.182;27.506;2023-07-08T08:23:16;10.88;;;5.15;;
47737;SDS011;33502;47.182;27.506;2023-07-08T08:25:41;12.50;;;5.10;;
47737;SDS011;33502;47.182;27.506;2023-07-08T08:28:07;19.23;;;7.28;;
47737;SDS011;33502;47.182;27.506;2023-07-08T08:30:34;12.07;;;4.85;;
47737;SDS011;33502;47.182;27.506;2023-07-08T08:33:00;7.70;;;3.58;;
47737;SDS011;33502;47.182;27.506;2023-07-08T08:35:26;8.05;;;3.40;;
47737;SDS011;33502;47.182;27.506;2023-07-08T08:37:52;11.90;;;4.72;;
47737;SDS011;33502;47.182;27.506;2023-07-08T08:40:19;15.95;;;6.28;;
47737;SDS011;33502;47.182;27.506;2023-07-08T08:42:53;15.80;;;5.82;;
47737;SDS011;33502;47.182;27.506;2023-07-08T08:45:25;8.55;;;3.90;;
47737;SDS011;33502;47.182;27.506;2023-07-08T08:47:54;10.10;;;4.20;;
47737;SDS011;33502;47.182;27.506;2023-07-08T08:53:15;10.85;;;7.22;;
47737;SDS011;33502;47.182;27.506;2023-07-08T09:00:56;8.60;;;6.53;;
47737;SDS011;33502;47.182;27.506;2023-07-08T13:11:59;6.25;;;4.38;;
47737;SDS011;33502;47.182;27.506;2023-07-08T13:14:30;13.75;;;5.20;;
47737;SDS011;33502;47.182;27.506;2023-07-08T13:16:56;8.32;;;3.22;;
47737;SDS011;33502;47.182;27.506;2023-07-08T13:21:49;6.35;;;3.20;;
47737;SDS011;33502;47.182;27.506;2023-07-08T13:24:15;64.88;;;23.48;;
47737;SDS011;33502;47.182;27.506;2023-07-08T13:52:37;102.72;;;37.00;;
47737;SDS011;33502;47.182;27.506;2023-07-08T13:57:17;88.33;;;35.57;;
